Time;durP1;ratioP1;P1;durP2;ratioP2;P2;SDS_P1;SDS_P2;PMS_P1;PMS_P2;Temp;Humidity;BMP_temperature;BMP_pressure;BME280_temperature;BME280_humidity;BME280_pressure;Samples;Min_cycle;Max_cycle;Signal;HPM_P1;HPM_P2
2021/12/13 00:02:23;;;;;;;73.05;22.33;;;;;;;;;;4991646;28;20185;-44
2021/12/13 00:04:58;;;;;;;70.60;20.45;;;;;;;;;;4990378;28;20442;-44
2021/12/13 00:07:27;;;;;;;73.67;20.90;;;;;;;;;;4991220;28;20027;-44
2021/12/13 00:09:55;;;;;;;56.75;18.63;;;;;;;;;;4990931;28;20061;-44
2021/12/13 00:12:29;;;;;;;64.55;19.80;;;;;;;;;;4991630;28;20085;-43
2021/12/13 00:14:56;;;;;;;77.65;21.75;;;;;;;;;;4991513;28;20026;-45
2021/12/13 00:17:24;;;;;;;56.65;17.88;;;;;;;;;;4991133;28;20037;-45
2021/12/13 00:19:58;;;;;;;63.05;17.35;;;;;;;;;;4990862;28;20084;-44
2021/12/13 00:22:27;;;;;;;54.60;17.48;;;;;;;;;;4991285;28;20018;-44
2021/12/13 00:24:53;;;;;;;48.97;15.93;;;;;;;;;;4990390;28;20026;-46
2021/12/13 00:27:25;;;;;;;45.17;16.52;;;;;;;;;;4991063;28;20031;-47
2021/12/13 00:30:10;;;;;;;50.15;16.02;;;;;;;;;;4989075;28;20034;-46
2021/12/13 00:32:56;;;;;;;57.42;16.92;;;;;;;;;;4990129;28;20369;-44
2021/12/13 00:35:24;;;;;;;54.90;16.90;;;;;;;;;;4989056;28;20102;-45
2021/12/13 00:37:52;;;;;;;52.35;17.05;;;;;;;;;;4990203;28;20034;-44
2021/12/13 00:40:24;;;;;;;58.22;17.77;;;;;;;;;;4990521;28;20054;-45
2021/12/13 00:43:01;;;;;;;57.28;17.58;;;;;;;;;;4990978;28;20034;-45
2021/12/13 00:45:31;;;;;;;58.28;16.63;;;;;;;;;;4989966;28;20077;-44
2021/12/13 00:48:01;;;;;;;52.38;16.80;;;;;;;;;;4990438;28;20397;-44
2021/12/13 00:50:35;;;;;;;47.13;15.70;;;;;;;;;;4989701;28;20081;-45
2021/12/13 00:53:01;;;;;;;53.10;17.13;;;;;;;;;;4990829;28;20034;-46
2021/12/13 00:55:29;;;;;;;50.28;15.32;;;;;;;;;;4989876;28;20200;-45
2021/12/13 00:58:04;;;;;;;47.28;15.85;;;;;;;;;;4991024;28;20114;-44
2021/12/13 01:00:39;;;;;;;49.58;16.17;;;;;;;;;;4989301;28;20026;-44
2021/12/13 01:03:17;;;;;;;45.22;13.93;;;;;;;;;;4984239;28;20059;-44
2021/12/13 01:05:49;;;;;;;47.58;15.73;;;;;;;;;;4981945;28;20055;-44
2021/12/13 01:08:21;;;;;;;44.13;15.43;;;;;;;;;;4988726;28;20034;-45
2021/12/13 01:10:54;;;;;;;45.67;15.20;;;;;;;;;;4990613;28;20023;-43
2021/12/13 01:13:55;;;;;;;51.15;15.88;;;;;;;;;;4990999;28;20035;-44
2021/12/13 01:16:49;;;;;;;47.20;14.95;;;;;;;;;;4926068;29;20110;-45
2021/12/13 01:22:23;;;;;;;47.45;15.13;;;;;;;;;;5000347;28;20301;-45
2021/12/13 01:27:16;;;;;;;41.53;13.88;;;;;;;;;;4989818;28;20077;-45
2021/12/13 01:29:50;;;;;;;44.58;14.02;;;;;;;;;;4990108;28;20053;-45
2021/12/13 01:32:18;;;;;;;51.97;14.95;;;;;;;;;;4990650;28;20054;-44
2021/12/13 01:34:46;;;;;;;42.35;13.02;;;;;;;;;;4990237;28;20026;-46
2021/12/13 01:37:15;;;;;;;41.30;13.68;;;;;;;;;;4990434;28;20031;-44
2021/12/13 01:39:49;;;;;;;36.15;12.48;;;;;;;;;;4973318;28;20015;-45
2021/12/13 01:42:23;;;;;;;36.65;13.32;;;;;;;;;;4979007;28;20065;-44
2021/12/13 01:45:00;;;;;;;43.03;14.32;;;;;;;;;;4983766;28;20502;-45
2021/12/13 01:47:29;;;;;;;42.50;12.98;;;;;;;;;;4980750;28;20107;-44
2021/12/13 01:50:02;;;;;;;46.90;13.40;;;;;;;;;;4978967;28;20022;-45
2021/12/13 01:52:30;;;;;;;40.22;13.02;;;;;;;;;;4977667;28;20027;-45
2021/12/13 01:55:00;;;;;;;42.28;13.68;;;;;;;;;;4979320;28;20101;-45
2021/12/13 01:57:40;;;;;;;48.47;13.27;;;;;;;;;;4976766;28;20034;-45
2021/12/13 02:00:17;;;;;;;39.05;12.30;;;;;;;;;;4980481;28;20027;-44
2021/12/13 02:02:44;;;;;;;35.80;13.00;;;;;;;;;;4987403;28;20076;-46
2021/12/13 02:05:13;;;;;;;48.17;14.52;;;;;;;;;;4979988;28;20047;-46
2021/12/13 02:07:49;;;;;;;58.30;15.98;;;;;;;;;;4983534;28;20402;-44
2021/12/13 02:10:23;;;;;;;42.53;13.68;;;;;;;;;;4982223;28;20022;-45
2021/12/13 02:12:55;;;;;;;44.30;13.48;;;;;;;;;;4982708;28;20046;-45
2021/12/13 02:18:07;;;;;;;43.75;13.32;;;;;;;;;;4981114;28;20037;-44
2021/12/13 02:20:37;;;;;;;44.05;12.73;;;;;;;;;;4981524;28;20062;-44
2021/12/13 02:23:05;;;;;;;45.75;13.88;;;;;;;;;;4981789;28;20415;-46
2021/12/13 02:25:33;;;;;;;35.72;12.38;;;;;;;;;;4983439;28;20102;-45
2021/12/13 02:28:05;;;;;;;35.08;11.95;;;;;;;;;;4985993;28;20034;-44
2021/12/13 02:30:37;;;;;;;33.60;11.70;;;;;;;;;;4981314;28;20113;-44
2021/12/13 02:33:05;;;;;;;34.90;11.85;;;;;;;;;;4988049;28;20054;-44
2021/12/13 02:35:33;;;;;;;41.67;12.57;;;;;;;;;;4980719;28;20061;-47
2021/12/13 02:37:59;;;;;;;38.70;11.50;;;;;;;;;;4979864;28;20096;-45
2021/12/13 02:40:26;;;;;;;34.72;10.63;;;;;;;;;;4984890;28;20154;-44
2021/12/13 02:42:52;;;;;;;35.95;11.68;;;;;;;;;;4982801;28;20054;-44
2021/12/13 02:45:25;;;;;;;36.63;11.88;;;;;;;;;;4977078;28;20047;-46
2021/12/13 02:47:54;;;;;;;38.10;12.68;;;;;;;;;;4984463;28;21892;-44
2021/12/13 02:50:23;;;;;;;38.65;11.73;;;;;;;;;;4981384;28;20064;-45
2021/12/13 02:52:50;;;;;;;32.50;11.68;;;;;;;;;;4982090;28;20131;-45
2021/12/13 02:55:20;;;;;;;34.47;11.70;;;;;;;;;;4984019;28;20062;-44
2021/12/13 02:57:47;;;;;;;38.97;11.95;;;;;;;;;;4983582;28;20037;-44
2021/12/13 03:00:26;;;;;;;50.60;13.60;;;;;;;;;;4984418;28;20069;-45
2021/12/13 03:02:53;;;;;;;51.25;13.93;;;;;;;;;;4982480;28;20037;-44
2021/12/13 03:05:26;;;;;;;45.60;13.65;;;;;;;;;;4984351;28;20030;-45
2021/12/13 03:07:53;;;;;;;51.83;15.50;;;;;;;;;;4982737;28;20497;-44
2021/12/13 03:10:24;;;;;;;52.72;16.55;;;;;;;;;;4982586;28;20126;-45
2021/12/13 03:12:51;;;;;;;59.13;16.80;;;;;;;;;;4979114;28;20462;-45
2021/12/13 03:15:19;;;;;;;59.47;16.52;;;;;;;;;;4978883;28;20031;-46
2021/12/13 03:17:49;;;;;;;59.42;16.50;;;;;;;;;;4979081;28;20040;-47
2021/12/13 03:20:21;;;;;;;69.68;16.73;;;;;;;;;;4979248;28;20600;-44
2021/12/13 03:23:06;;;;;;;64.03;18.55;;;;;;;;;;4979905;28;20470;-44
2021/12/13 03:25:41;;;;;;;72.78;18.15;;;;;;;;;;4982041;28;20084;-44
2021/12/13 03:28:27;;;;;;;73.47;17.48;;;;;;;;;;4976304;28;20066;-44
2021/12/13 03:30:59;;;;;;;62.47;18.20;;;;;;;;;;4978561;28;20076;-44
2021/12/13 03:33:30;;;;;;;65.80;17.30;;;;;;;;;;4976623;28;20022;-44
2021/12/13 03:35:58;;;;;;;66.65;18.83;;;;;;;;;;4979221;28;20068;-46
2021/12/13 03:38:27;;;;;;;75.63;19.42;;;;;;;;;;4978458;28;20026;-44
2021/12/13 03:40:53;;;;;;;59.45;17.95;;;;;;;;;;4982208;28;20026;-44
2021/12/13 03:43:25;;;;;;;73.55;18.27;;;;;;;;;;4978741;28;20073;-44
2021/12/13 03:45:54;;;;;;;65.20;16.35;;;;;;;;;;4980054;28;20056;-44
2021/12/13 03:48:23;;;;;;;68.03;17.15;;;;;;;;;;4980459;28;20462;-44
2021/12/13 03:50:51;;;;;;;64.90;17.60;;;;;;;;;;4980130;28;20038;-44
2021/12/13 03:53:19;;;;;;;58.72;16.60;;;;;;;;;;4978973;28;20066;-44
2021/12/13 03:55:46;;;;;;;65.80;18.00;;;;;;;;;;4978510;28;20108;-44
2021/12/13 03:58:13;;;;;;;75.22;18.33;;;;;;;;;;4981230;28;20019;-45
2021/12/13 04:00:42;;;;;;;65.38;18.13;;;;;;;;;;4978878;28;20039;-45
2021/12/13 04:03:09;;;;;;;82.22;19.80;;;;;;;;;;4975760;28;20018;-46
2021/12/13 04:05:36;;;;;;;73.88;19.27;;;;;;;;;;4982128;28;20022;-44
2021/12/13 04:08:05;;;;;;;79.45;19.73;;;;;;;;;;4977617;28;20396;-44
2021/12/13 04:10:32;;;;;;;86.60;21.42;;;;;;;;;;4979046;28;20098;-44
2021/12/13 04:13:00;;;;;;;91.63;22.17;;;;;;;;;;4979795;28;20066;-44
2021/12/13 04:18:41;;;;;;;87.40;21.73;;;;;;;;;;4976576;28;20038;-44
2021/12/13 04:21:07;;;;;;;91.38;21.75;;;;;;;;;;4978751;28;20018;-44
2021/12/13 04:23:34;;;;;;;87.80;22.55;;;;;;;;;;4979388;28;20038;-44
2021/12/13 04:26:02;;;;;;;85.28;20.75;;;;;;;;;;4981755;28;20029;-44
2021/12/13 04:28:40;;;;;;;84.25;21.38;;;;;;;;;;4974958;28;20027;-45
2021/12/13 04:31:09;;;;;;;75.43;19.15;;;;;;;;;;4979026;28;20054;-44
2021/12/13 04:33:38;;;;;;;77.07;19.35;;;;;;;;;;4979723;28;20030;-45
2021/12/13 04:36:24;;;;;;;76.40;18.42;;;;;;;;;;4978843;28;20153;-45
2021/12/13 04:38:52;;;;;;;72.80;18.65;;;;;;;;;;4979691;28;20070;-44
2021/12/13 04:41:33;;;;;;;60.65;16.52;;;;;;;;;;4962668;28;20418;-44
2021/12/13 04:44:08;;;;;;;61.90;16.40;;;;;;;;;;4984282;28;20028;-44
2021/12/13 04:46:35;;;;;;;53.97;16.17;;;;;;;;;;4981674;28;20031;-44
2021/12/13 04:49:05;;;;;;;65.00;17.77;;;;;;;;;;4978956;28;20034;-44
2021/12/13 04:51:38;;;;;;;69.47;17.33;;;;;;;;;;4979896;28;20027;-44
2021/12/13 04:54:05;;;;;;;53.03;15.85;;;;;;;;;;4986858;28;20049;-44
2021/12/13 04:56:31;;;;;;;61.00;16.75;;;;;;;;;;4978445;28;20026;-45
2021/12/13 04:58:59;;;;;;;50.47;15.77;;;;;;;;;;4985576;28;20036;-44
2021/12/13 05:01:25;;;;;;;53.28;16.05;;;;;;;;;;4983643;28;20047;-45
2021/12/13 05:03:53;;;;;;;55.95;16.13;;;;;;;;;;4984486;28;20034;-44
2021/12/13 05:06:22;;;;;;;52.83;16.38;;;;;;;;;;4977250;28;20030;-44
2021/12/13 05:08:49;;;;;;;64.15;16.42;;;;;;;;;;4986381;28;20068;-46
2021/12/13 05:11:16;;;;;;;54.13;16.10;;;;;;;;;;4982997;28;20029;-45
2021/12/13 05:13:47;;;;;;;65.30;16.98;;;;;;;;;;4978855;28;20051;-44
2021/12/13 05:16:14;;;;;;;66.53;17.38;;;;;;;;;;4993960;28;20034;-46
2021/12/13 05:18:43;;;;;;;68.13;18.80;;;;;;;;;;4989516;28;20057;-44
2021/12/13 05:21:10;;;;;;;73.57;18.58;;;;;;;;;;4990686;28;20055;-44
2021/12/13 05:23:43;;;;;;;71.20;18.60;;;;;;;;;;4990555;28;20026;-44
2021/12/13 05:26:10;;;;;;;67.78;18.77;;;;;;;;;;4990143;28;20516;-44
2021/12/13 05:28:49;;;;;;;78.18;20.27;;;;;;;;;;4990152;28;20066;-44
2021/12/13 05:31:19;;;;;;;88.35;22.08;;;;;;;;;;4987581;28;20115;-44
2021/12/13 05:33:49;;;;;;;86.53;23.23;;;;;;;;;;4988770;28;20022;-44
2021/12/13 05:36:21;;;;;;;80.30;22.70;;;;;;;;;;4989379;28;20496;-44
2021/12/13 05:38:48;;;;;;;96.40;22.33;;;;;;;;;;4988345;28;20102;-44
2021/12/13 05:41:23;;;;;;;94.43;24.48;;;;;;;;;;4989853;28;20086;-46
2021/12/13 05:43:51;;;;;;;86.80;22.73;;;;;;;;;;4994258;28;20049;-45
2021/12/13 05:46:23;;;;;;;85.65;22.30;;;;;;;;;;4994523;28;20026;-44
2021/12/13 05:48:54;;;;;;;90.82;21.67;;;;;;;;;;4993750;28;20080;-46
2021/12/13 05:51:22;;;;;;;93.90;21.70;;;;;;;;;;4993207;28;20037;-46
2021/12/13 05:53:53;;;;;;;86.57;22.65;;;;;;;;;;4993484;28;20023;-44
2021/12/13 05:56:20;;;;;;;95.05;24.98;;;;;;;;;;4993952;28;20482;-44
2021/12/13 05:58:55;;;;;;;93.20;23.83;;;;;;;;;;4993576;28;20358;-45
2021/12/13 06:01:27;;;;;;;101.68;25.27;;;;;;;;;;4993888;28;20057;-47
2021/12/13 06:03:53;;;;;;;102.18;24.48;;;;;;;;;;4993945;28;20109;-45
2021/12/13 06:06:22;;;;;;;108.55;25.23;;;;;;;;;;4994090;28;20033;-45
2021/12/13 06:08:51;;;;;;;113.65;26.73;;;;;;;;;;4993761;28;20422;-44
2021/12/13 06:11:35;;;;;;;105.05;26.88;;;;;;;;;;4993107;28;20156;-44
2021/12/13 06:14:03;;;;;;;114.13;26.88;;;;;;;;;;4974959;28;20437;-45
2021/12/13 06:16:35;;;;;;;118.25;28.58;;;;;;;;;;4974087;28;20027;-44
2021/12/13 06:19:04;;;;;;;106.38;25.90;;;;;;;;;;4974320;28;20026;-44
2021/12/13 06:21:52;;;;;;;117.53;26.40;;;;;;;;;;4993257;28;20048;-47
2021/12/13 06:24:44;;;;;;;98.32;26.35;;;;;;;;;;4992281;28;20062;-44
2021/12/13 06:27:16;;;;;;;89.13;24.65;;;;;;;;;;4978075;28;20126;-46
2021/12/13 06:30:04;;;;;;;93.22;23.70;;;;;;;;;;4978917;28;20026;-45
2021/12/13 06:32:32;;;;;;;92.20;23.35;;;;;;;;;;4980094;28;20022;-45
2021/12/13 06:34:59;;;;;;;79.32;21.50;;;;;;;;;;4977765;28;20057;-44
2021/12/13 06:37:35;;;;;;;74.47;20.67;;;;;;;;;;4982121;28;20521;-45
2021/12/13 06:40:33;;;;;;;71.53;19.15;;;;;;;;;;4979093;28;20023;-45
2021/12/13 06:43:01;;;;;;;64.88;17.02;;;;;;;;;;4938114;28;20507;-44
2021/12/13 06:45:29;;;;;;;64.22;16.98;;;;;;;;;;4980428;28;20046;-44
2021/12/13 06:47:56;;;;;;;55.42;17.25;;;;;;;;;;4982274;28;20519;-46
2021/12/13 06:50:24;;;;;;;49.72;16.42;;;;;;;;;;4978241;28;20406;-45
2021/12/13 06:52:50;;;;;;;56.08;16.00;;;;;;;;;;4981282;28;20117;-45
2021/12/13 06:55:18;;;;;;;55.38;17.70;;;;;;;;;;4977576;28;20489;-43
2021/12/13 06:57:46;;;;;;;51.45;15.05;;;;;;;;;;4981866;28;20037;-44
2021/12/13 07:00:15;;;;;;;53.88;15.43;;;;;;;;;;4980570;28;20023;-45
2021/12/13 07:02:53;;;;;;;54.90;15.82;;;;;;;;;;4983151;28;20062;-45
2021/12/13 07:05:21;;;;;;;49.33;14.57;;;;;;;;;;4983673;28;20033;-45
2021/12/13 07:07:56;;;;;;;48.67;14.05;;;;;;;;;;4981570;28;20062;-46
2021/12/13 07:10:24;;;;;;;48.03;14.98;;;;;;;;;;4977293;28;20042;-45
2021/12/13 07:12:52;;;;;;;47.78;14.55;;;;;;;;;;4984631;28;20031;-44
2021/12/13 07:15:27;;;;;;;47.38;13.65;;;;;;;;;;4979104;28;20050;-47
2021/12/13 07:18:00;;;;;;;45.60;14.88;;;;;;;;;;4981774;28;20066;-44
2021/12/13 07:20:35;;;;;;;47.53;15.30;;;;;;;;;;4982339;28;20074;-47
2021/12/13 07:23:01;;;;;;;54.07;16.00;;;;;;;;;;4985610;28;20042;-44
2021/12/13 07:25:34;;;;;;;42.88;13.93;;;;;;;;;;4989270;28;20102;-47
2021/12/13 07:28:00;;;;;;;53.85;14.63;;;;;;;;;;4984662;28;20057;-45
2021/12/13 07:30:28;;;;;;;55.53;17.40;;;;;;;;;;4986583;28;20063;-47
2021/12/13 07:32:57;;;;;;;49.28;15.57;;;;;;;;;;4988653;28;20038;-45
2021/12/13 07:35:46;;;;;;;55.60;16.48;;;;;;;;;;4985378;28;20030;-45
2021/12/13 07:38:20;;;;;;;47.22;15.20;;;;;;;;;;4997804;28;20037;-43
2021/12/13 07:40:57;;;;;;;47.92;15.77;;;;;;;;;;5003032;28;20014;-44
2021/12/13 07:43:27;;;;;;;50.25;16.67;;;;;;;;;;4987563;28;20054;-44
2021/12/13 07:46:24;;;;;;;44.75;14.95;;;;;;;;;;4990768;28;20066;-45
2021/12/13 07:48:56;;;;;;;62.78;15.82;;;;;;;;;;5001098;28;20107;-42
2021/12/13 07:51:33;;;;;;;58.10;17.23;;;;;;;;;;5006056;28;20076;-45
2021/12/13 07:54:14;;;;;;;63.78;18.00;;;;;;;;;;4992512;28;20034;-44
2021/12/13 07:56:49;;;;;;;58.58;18.35;;;;;;;;;;5008156;28;20007;-46
2021/12/13 07:59:36;;;;;;;59.72;18.80;;;;;;;;;;4991936;28;20025;-43
2021/12/13 08:02:17;;;;;;;75.22;19.33;;;;;;;;;;5007705;28;20598;-44
2021/12/13 08:04:50;;;;;;;65.97;20.63;;;;;;;;;;4989542;28;20125;-45
2021/12/13 08:07:17;;;;;;;71.75;19.90;;;;;;;;;;4986179;28;20030;-45
2021/12/13 08:09:54;;;;;;;63.58;20.42;;;;;;;;;;4987082;28;20036;-45
2021/12/13 08:12:26;;;;;;;70.13;21.10;;;;;;;;;;4987339;28;20033;-46
2021/12/13 08:14:55;;;;;;;79.40;23.02;;;;;;;;;;4991114;28;20477;-45
2021/12/13 08:17:21;;;;;;;72.80;21.98;;;;;;;;;;4990026;28;20023;-46
2021/12/13 08:19:57;;;;;;;78.03;23.48;;;;;;;;;;4989170;28;20094;-46
2021/12/13 08:22:28;;;;;;;68.82;21.88;;;;;;;;;;4986148;28;20080;-45
2021/12/13 08:24:55;;;;;;;76.88;24.88;;;;;;;;;;4990038;28;20040;-45
2021/12/13 08:27:28;;;;;;;81.60;26.30;;;;;;;;;;4988454;28;20031;-44
2021/12/13 08:30:14;;;;;;;76.95;24.67;;;;;;;;;;4989677;28;20037;-46
2021/12/13 08:33:00;;;;;;;85.45;26.08;;;;;;;;;;4995141;28;20038;-45
2021/12/13 08:35:26;;;;;;;79.65;24.92;;;;;;;;;;4992120;28;20027;-45
2021/12/13 08:37:59;;;;;;;79.95;25.27;;;;;;;;;;4996202;28;20111;-45
2021/12/13 08:40:28;;;;;;;84.35;25.95;;;;;;;;;;4990349;28;20027;-47
2021/12/13 08:42:55;;;;;;;77.68;26.30;;;;;;;;;;4988643;28;20061;-46
2021/12/13 08:45:32;;;;;;;88.72;26.58;;;;;;;;;;4989580;28;20036;-45
2021/12/13 08:48:04;;;;;;;77.00;26.13;;;;;;;;;;4988001;28;20026;-46
2021/12/13 08:50:35;;;;;;;85.80;26.92;;;;;;;;;;4990864;28;20029;-45
2021/12/13 08:53:12;;;;;;;82.55;26.55;;;;;;;;;;4991427;28;20027;-46
2021/12/13 08:55:40;;;;;;;84.22;27.02;;;;;;;;;;4988131;28;20033;-45
2021/12/13 08:58:17;;;;;;;95.10;29.00;;;;;;;;;;4991874;28;20081;-46
2021/12/13 09:00:54;;;;;;;84.15;27.80;;;;;;;;;;4988208;28;20030;-45
2021/12/13 09:03:22;;;;;;;89.70;27.48;;;;;;;;;;4985184;28;20030;-46
2021/12/13 09:05:56;;;;;;;81.97;26.83;;;;;;;;;;4993834;28;20092;-46
2021/12/13 09:08:41;;;;;;;78.47;26.80;;;;;;;;;;4997221;28;20125;-45
2021/12/13 09:11:19;;;;;;;87.28;28.88;;;;;;;;;;4988683;28;20030;-46
2021/12/13 09:13:51;;;;;;;89.30;28.30;;;;;;;;;;4979815;28;20026;-45
2021/12/13 09:16:20;;;;;;;81.30;27.13;;;;;;;;;;4990651;28;20054;-45
2021/12/13 09:18:48;;;;;;;71.95;25.08;;;;;;;;;;4993239;28;20066;-47
2021/12/13 09:21:17;;;;;;;72.35;27.30;;;;;;;;;;4992887;28;21715;-45
2021/12/13 09:23:46;;;;;;;70.15;28.35;;;;;;;;;;5002385;23;20040;-46
2021/12/13 09:26:24;;;;;;;70.80;24.92;;;;;;;;;;5007948;28;20050;-46
2021/12/13 09:28:53;;;;;;;55.15;22.38;;;;;;;;;;5014245;28;20037;-45
2021/12/13 09:31:34;;;;;;;55.72;22.15;;;;;;;;;;5011208;28;20373;-46
2021/12/13 09:34:13;;;;;;;52.78;20.63;;;;;;;;;;5005597;28;20018;-48
2021/12/13 09:36:40;;;;;;;46.60;20.20;;;;;;;;;;5013075;28;20040;-46
2021/12/13 09:39:11;;;;;;;44.03;19.70;;;;;;;;;;5009692;28;20041;-46
2021/12/13 09:41:57;;;;;;;49.28;20.30;;;;;;;;;;5013005;28;20030;-47
2021/12/13 09:44:32;;;;;;;39.17;19.08;;;;;;;;;;5009783;28;20126;-46
2021/12/13 09:47:07;;;;;;;45.90;19.27;;;;;;;;;;5012618;28;20361;-47
2021/12/13 09:49:39;;;;;;;34.85;17.73;;;;;;;;;;5009594;28;20033;-45
2021/12/13 09:52:05;;;;;;;35.67;17.73;;;;;;;;;;5006329;28;20034;-46
2021/12/13 09:54:37;;;;;;;34.35;17.67;;;;;;;;;;5011613;28;20030;-45
2021/12/13 09:57:05;;;;;;;32.60;17.25;;;;;;;;;;5011655;28;20030;-47
2021/12/13 09:59:34;;;;;;;31.05;16.05;;;;;;;;;;5014219;28;20057;-47
2021/12/13 10:02:02;;;;;;;25.70;14.20;;;;;;;;;;5014176;28;20428;-45
2021/12/13 10:04:33;;;;;;;26.67;12.40;;;;;;;;;;5005326;28;20030;-46
2021/12/13 10:07:06;;;;;;;26.63;10.35;;;;;;;;;;5012197;28;20045;-44
2021/12/13 10:09:35;;;;;;;20.67;9.85;;;;;;;;;;5010429;28;20022;-44
2021/12/13 10:12:05;;;;;;;18.30;9.20;;;;;;;;;;5013290;28;20028;-46
2021/12/13 10:14:35;;;;;;;15.38;8.02;;;;;;;;;;5024575;28;20021;-47
2021/12/13 10:17:04;;;;;;;15.77;8.13;;;;;;;;;;5013218;28;20077;-40
2021/12/13 10:19:32;;;;;;;18.48;8.27;;;;;;;;;;5011295;28;20073;-39
2021/12/13 10:21:59;;;;;;;17.20;7.85;;;;;;;;;;5014193;28;20018;-40
2021/12/13 10:24:45;;;;;;;13.27;7.90;;;;;;;;;;5011487;28;20032;-40
2021/12/13 10:27:11;;;;;;;;;;;;;;;;;;5013708;28;20504;-40
2021/12/13 10:29:37;;;;;;;;;;;;;;;;;;5014728;28;19959;-39
2021/12/13 10:32:08;;;;;;;14.85;8.20;;;;;;;;;;5013065;28;19941;-40
2021/12/13 10:34:36;;;;;;;12.65;8.15;;;;;;;;;;5022110;28;20099;-40
2021/12/13 10:37:11;;;;;;;12.38;8.27;;;;;;;;;;5014386;28;20476;-40
2021/12/13 10:39:39;;;;;;;12.65;7.53;;;;;;;;;;5012348;28;20068;-40
2021/12/13 10:42:07;;;;;;;12.98;8.27;;;;;;;;;;5012407;28;20160;-40
2021/12/13 10:44:34;;;;;;;16.10;10.90;;;;;;;;;;5011977;28;20018;-39
2021/12/13 10:47:05;;;;;;;14.90;10.20;;;;;;;;;;5007206;28;20064;-39
2021/12/13 10:49:32;;;;;;;20.40;11.52;;;;;;;;;;5003843;28;20101;-39
2021/12/13 10:52:08;;;;;;;20.50;12.13;;;;;;;;;;5012828;28;20030;-40
2021/12/13 10:54:37;;;;;;;25.42;12.73;;;;;;;;;;5003846;28;20116;-40
2021/12/13 10:57:09;;;;;;;20.30;12.63;;;;;;;;;;5003139;28;20428;-39
2021/12/13 10:59:35;;;;;;;24.50;12.60;;;;;;;;;;5021395;28;20026;-39
2021/12/13 11:02:10;;;;;;;23.38;12.25;;;;;;;;;;5018614;28;20049;-40
2021/12/13 11:04:38;;;;;;;24.10;14.23;;;;;;;;;;5010312;28;20091;-39
2021/12/13 11:07:06;;;;;;;23.13;14.07;;;;;;;;;;5007595;28;20027;-40
2021/12/13 11:09:32;;;;;;;22.98;14.90;;;;;;;;;;5004810;28;20110;-40
2021/12/13 11:11:58;;;;;;;29.00;17.02;;;;;;;;;;4995105;28;20026;-40
2021/12/13 11:14:25;;;;;;;31.63;16.35;;;;;;;;;;4997301;28;20723;-39
2021/12/13 11:16:56;;;;;;;26.60;16.00;;;;;;;;;;5001937;28;20479;-39
2021/12/13 11:19:24;;;;;;;23.27;14.25;;;;;;;;;;5004200;28;20025;-39
2021/12/13 11:21:52;;;;;;;27.92;16.00;;;;;;;;;;5013107;28;20105;-40
2021/12/13 11:24:21;;;;;;;25.02;16.00;;;;;;;;;;5003521;28;20129;-39
2021/12/13 11:26:50;;;;;;;22.67;14.93;;;;;;;;;;5009697;28;20048;-39
2021/12/13 11:29:16;;;;;;;22.73;14.82;;;;;;;;;;5011669;28;20105;-40
2021/12/13 11:31:48;;;;;;;31.67;15.50;;;;;;;;;;5012298;28;20469;-40
2021/12/13 11:34:23;;;;;;;28.90;14.73;;;;;;;;;;5012606;28;20057;-40
2021/12/13 11:36:49;;;;;;;;;;;;;;;;;;5012053;28;20097;-40
2021/12/13 11:39:15;;;;;;;;;;;;;;;;;;5011398;28;19909;-40
2021/12/13 11:41:41;;;;;;;;;;;;;;;;;;5010248;28;19979;-40
2021/12/13 11:44:25;;;;;;;25.02;14.05;;;;;;;;;;5009375;28;20371;-39
2021/12/13 11:46:51;;;;;;;26.30;14.68;;;;;;;;;;5010190;28;20543;-40
2021/12/13 11:49:36;;;;;;;26.75;14.55;;;;;;;;;;5010831;28;20021;-39
2021/12/13 11:52:10;;;;;;;24.77;14.55;;;;;;;;;;5011609;28;20068;-39
2021/12/13 11:54:39;;;;;;;24.73;13.93;;;;;;;;;;5010826;28;20033;-40
2021/12/13 11:57:36;;;;;;;28.15;15.27;;;;;;;;;;5003912;28;20057;-39
2021/12/13 12:00:15;;;;;;;28.17;14.77;;;;;;;;;;5016102;28;20033;-39
2021/12/13 12:03:00;;;;;;;31.20;15.32;;;;;;;;;;5010416;28;20054;-39
2021/12/13 12:05:32;;;;;;;29.90;14.13;;;;;;;;;;5009755;28;20037;-39
2021/12/13 12:08:19;;;;;;;22.55;13.38;;;;;;;;;;5008396;28;20065;-39
2021/12/13 12:11:04;;;;;;;24.08;13.25;;;;;;;;;;5009608;28;20108;-39
2021/12/13 12:13:52;;;;;;;26.27;15.00;;;;;;;;;;5003434;28;20026;-39
2021/12/13 12:16:21;;;;;;;24.05;13.45;;;;;;;;;;5009541;28;20026;-40
2021/12/13 12:18:47;;;;;;;23.38;13.98;;;;;;;;;;5011435;28;20076;-39
2021/12/13 12:21:31;;;;;;;25.10;15.15;;;;;;;;;;5010089;28;20025;-39
2021/12/13 12:24:08;;;;;;;26.90;12.48;;;;;;;;;;5013611;28;20068;-39
2021/12/13 12:26:35;;;;;;;23.55;13.40;;;;;;;;;;5009315;28;20069;-39
2021/12/13 12:29:03;;;;;;;21.58;13.25;;;;;;;;;;5015605;28;20025;-39
2021/12/13 12:31:34;;;;;;;25.45;14.40;;;;;;;;;;5012647;28;20029;-39
2021/12/13 12:34:00;;;;;;;24.02;13.73;;;;;;;;;;5012912;28;20021;-39
2021/12/13 12:36:41;;;;;;;24.45;15.13;;;;;;;;;;5012181;28;20068;-39
2021/12/13 12:39:26;;;;;;;25.45;14.98;;;;;;;;;;5014145;28;20061;-40
2021/12/13 12:42:11;;;;;;;25.60;13.98;;;;;;;;;;5010648;28;20161;-39
2021/12/13 12:44:42;;;;;;;28.67;15.93;;;;;;;;;;5008060;28;20032;-40
2021/12/13 12:47:08;;;;;;;25.75;14.07;;;;;;;;;;5004807;28;20112;-39
2021/12/13 12:49:34;;;;;;;24.75;14.90;;;;;;;;;;5005167;28;20061;-40
2021/12/13 12:52:05;;;;;;;27.33;16.42;;;;;;;;;;5008255;28;20041;-39
2021/12/13 12:54:33;;;;;;;23.60;14.23;;;;;;;;;;5010192;28;20065;-39
2021/12/13 12:56:59;;;;;;;37.28;15.77;;;;;;;;;;5010480;28;20073;-39
2021/12/13 12:59:25;;;;;;;29.67;16.35;;;;;;;;;;5019973;28;20622;-39
2021/12/13 13:01:55;;;;;;;30.00;16.58;;;;;;;;;;5020415;28;20030;-38
2021/12/13 13:04:24;;;;;;;28.98;16.35;;;;;;;;;;5008598;28;20068;-38
2021/12/13 13:06:53;;;;;;;32.00;16.27;;;;;;;;;;5007700;28;20436;-39
2021/12/13 13:09:19;;;;;;;28.45;16.35;;;;;;;;;;5012324;28;20065;-39
2021/12/13 13:11:45;;;;;;;34.28;17.63;;;;;;;;;;5012303;28;20502;-39
2021/12/13 13:14:14;;;;;;;29.13;16.35;;;;;;;;;;5010120;28;20048;-38
2021/12/13 13:16:45;;;;;;;33.20;17.35;;;;;;;;;;5014595;28;20049;-39
2021/12/13 13:19:22;;;;;;;29.65;16.38;;;;;;;;;;5017844;28;20559;-38
2021/12/13 13:21:49;;;;;;;34.38;17.33;;;;;;;;;;5008344;28;20064;-38
2021/12/13 13:24:15;;;;;;;34.90;17.27;;;;;;;;;;5009104;28;20088;-38
2021/12/13 13:26:42;;;;;;;40.47;18.33;;;;;;;;;;5012256;28;20026;-38
2021/12/13 13:29:12;;;;;;;27.38;16.35;;;;;;;;;;5013629;28;20021;-38
2021/12/13 13:31:42;;;;;;;38.25;18.85;;;;;;;;;;5017142;28;20100;-38
2021/12/13 13:34:29;;;;;;;37.15;16.95;;;;;;;;;;5016486;28;20048;-39
2021/12/13 13:37:00;;;;;;;33.03;18.05;;;;;;;;;;5009861;28;20635;-39
2021/12/13 13:39:26;;;;;;;34.10;18.05;;;;;;;;;;5010464;28;20049;-38
2021/12/13 13:41:57;;;;;;;32.20;17.33;;;;;;;;;;5010279;28;20022;-39
2021/12/13 13:44:25;;;;;;;34.83;18.27;;;;;;;;;;5003934;28;20026;-38
2021/12/13 13:47:02;;;;;;;27.52;17.00;;;;;;;;;;5007767;28;20494;-39
2021/12/13 13:49:28;;;;;;;35.65;18.27;;;;;;;;;;5011954;28;20042;-38
2021/12/13 13:51:54;;;;;;;34.67;18.17;;;;;;;;;;5007436;28;20095;-38
2021/12/13 13:54:21;;;;;;;33.58;19.90;;;;;;;;;;5018491;28;20030;-39
2021/12/13 13:56:48;;;;;;;42.42;21.50;;;;;;;;;;5010735;28;20028;-38
2021/12/13 13:59:15;;;;;;;29.50;19.17;;;;;;;;;;5009038;28;20022;-38
2021/12/13 14:01:41;;;;;;;31.48;17.92;;;;;;;;;;5021175;28;20062;-38
2021/12/13 14:04:26;;;;;;;31.67;18.45;;;;;;;;;;5014069;28;20032;-38
2021/12/13 14:06:53;;;;;;;30.58;18.27;;;;;;;;;;5018390;28;20057;-39
2021/12/13 14:09:25;;;;;;;29.67;18.10;;;;;;;;;;5019253;28;20018;-39
2021/12/13 14:11:56;;;;;;;47.85;22.35;;;;;;;;;;5016949;28;20022;-39
2021/12/13 14:14:24;;;;;;;43.33;24.45;;;;;;;;;;5011776;28;20022;-39
2021/12/13 14:16:52;;;;;;;45.95;28.13;;;;;;;;;;5013554;28;20469;-39
2021/12/13 14:19:33;;;;;;;40.15;22.05;;;;;;;;;;5012031;28;20029;-39
2021/12/13 14:22:00;;;;;;;35.70;20.63;;;;;;;;;;5011235;28;20524;-39
2021/12/13 14:24:31;;;;;;;36.95;20.40;;;;;;;;;;5016723;28;20030;-39
2021/12/13 14:27:11;;;;;;;36.38;19.75;;;;;;;;;;5012542;28;20014;-39
2021/12/13 14:29:37;;;;;;;33.00;20.15;;;;;;;;;;5010490;28;20060;-39
2021/12/13 14:32:07;;;;;;;34.53;19.85;;;;;;;;;;5012719;28;20109;-39
2021/12/13 14:34:35;;;;;;;37.70;21.05;;;;;;;;;;5003073;28;20057;-39
2021/12/13 14:37:01;;;;;;;37.63;20.77;;;;;;;;;;5012428;28;20120;-39
2021/12/13 14:39:28;;;;;;;36.25;21.63;;;;;;;;;;5013149;28;20461;-39
2021/12/13 14:42:03;;;;;;;43.22;22.27;;;;;;;;;;5013129;28;20018;-38
2021/12/13 14:44:29;;;;;;;;;;;;;;;;;;5012295;28;20022;-39
2021/12/13 14:46:55;;;;;;;;;;;;;;;;;;5011355;28;19984;-39
2021/12/13 14:49:21;;;;;;;;;;;;;;;;;;5009247;28;20008;-39
2021/12/13 14:51:50;;;;;;;37.67;18.27;;;;;;;;;;5012742;28;19992;-39
2021/12/13 14:54:21;;;;;;;42.60;21.55;;;;;;;;;;5014998;28;20033;-39
2021/12/13 14:56:49;;;;;;;37.85;21.02;;;;;;;;;;5013677;28;20037;-39
2021/12/13 14:59:15;;;;;;;35.63;20.70;;;;;;;;;;5014960;28;20037;-40